createdAt,value
2023-04-08T00:01:10.010Z,99724.38
2023-04-08T00:03:37.431Z,99713.06
2023-04-08T00:06:05.080Z,99714.78
2023-04-08T00:08:32.380Z,99713.91
2023-04-08T00:11:00.753Z,99714.75
2023-04-08T00:13:28.185Z,99718.28
2023-04-08T00:15:55.573Z,99724.41
2023-04-08T00:18:24.004Z,99731.44
2023-04-08T00:20:51.673Z,99729.66
2023-04-08T00:23:20.253Z,99731.34
2023-04-08T00:25:47.691Z,99723.47
2023-04-08T00:28:15.048Z,99733.09
2023-04-08T00:30:48.445Z,99739.19
2023-04-08T00:33:16.896Z,99727.84
2023-04-08T00:35:44.346Z,99741.03
2023-04-08T00:38:11.872Z,99735.69
2023-04-08T00:40:39.433Z,99733.03
2023-04-08T00:43:07.098Z,99738.25
2023-04-08T00:45:34.603Z,99749.63
2023-04-08T00:48:03.762Z,99744.44
2023-04-08T00:50:31.654Z,99752.25
2023-04-08T00:52:59.209Z,99750.31
2023-04-08T00:55:26.763Z,99752.09
2023-04-08T00:57:54.277Z,99753.72
2023-04-08T01:00:21.653Z,99757.19
2023-04-08T01:03:12.040Z,99763.25
2023-04-08T01:06:11.761Z,99766.56
2023-04-08T01:08:42.571Z,99767.38
2023-04-08T01:11:14.065Z,99761.28
2023-04-08T01:13:43.644Z,99764.06
2023-04-08T01:16:14.662Z,99765.91
2023-04-08T01:18:45.371Z,99775.38
2023-04-08T01:21:13.387Z,99774.56
2023-04-08T01:24:11.820Z,99772.78
2023-04-08T01:26:45.914Z,99769.34
2023-04-08T01:29:21.622Z,99775.47
2023-04-08T01:31:52.250Z,99774.56
2023-04-08T01:34:21.516Z,99777.16
2023-04-08T01:36:50.269Z,99781.53
2023-04-08T01:39:19.661Z,99774.56
2023-04-08T01:41:48.063Z,99783.41
2023-04-08T01:44:17.372Z,99783.53
2023-04-08T01:46:44.988Z,99788.78
2023-04-08T01:49:12.801Z,99786.13
2023-04-08T01:51:41.487Z,99785.38
2023-04-08T01:54:08.776Z,99784.47
2023-04-08T01:56:39.819Z,99791.44
2023-04-08T01:59:12.427Z,99786.22
2023-04-08T02:01:44.926Z,99790.56
2023-04-08T02:04:14.067Z,99798.47
2023-04-08T02:06:41.770Z,99791.63
2023-04-08T02:09:08.873Z,99792.44
2023-04-08T02:11:36.353Z,99793.25
2023-04-08T02:14:04.928Z,99798.63
2023-04-08T02:16:43.810Z,99805.44
2023-04-08T02:19:51.876Z,99810.81
2023-04-08T02:22:51.074Z,99813.59
2023-04-08T02:25:23.572Z,99816.19
2023-04-08T02:27:56.385Z,99815.25
2023-04-08T02:30:28.177Z,99822.25
2023-04-08T02:32:57.428Z,99827.53
2023-04-08T02:35:25.389Z,99824.09
2023-04-08T02:37:52.941Z,99823.16
2023-04-08T02:40:29.660Z,99828.50
2023-04-08T02:42:57.256Z,99828.53
2023-04-08T02:45:42.202Z,99831.03
2023-04-08T02:48:11.547Z,99831.03
2023-04-08T02:50:40.108Z,99831.16
2023-04-08T02:53:09.626Z,99832.88
2023-04-08T02:55:37.314Z,99834.66
2023-04-08T02:58:05.838Z,99834.72
2023-04-08T03:00:33.205Z,99843.41
2023-04-08T03:03:01.564Z,99844.34
2023-04-08T03:05:29.203Z,99853.03
2023-04-08T03:07:56.480Z,99847.94
2023-04-08T03:10:25.096Z,99845.38
2023-04-08T03:12:52.736Z,99849.78
2023-04-08T03:15:19.976Z,99848.03
2023-04-08T03:17:47.560Z,99851.56
2023-04-08T03:20:15.982Z,99849.94
2023-04-08T03:22:43.515Z,99852.69
2023-04-08T03:25:11.977Z,99850.94
2023-04-08T03:27:39.519Z,99853.53
2023-04-08T03:30:13.113Z,99861.38
2023-04-08T03:32:42.613Z,99858.69
2023-04-08T03:35:16.275Z,99869.25
2023-04-08T03:37:43.636Z,99861.38
2023-04-08T03:40:11.662Z,99863.13
2023-04-08T03:42:39.133Z,99870.91
2023-04-08T03:45:06.971Z,99869.13
2023-04-08T03:47:34.672Z,99874.44
2023-04-08T03:50:04.134Z,99877.06
2023-04-08T03:52:31.426Z,99880.47
2023-04-08T03:54:58.957Z,99884.03
2023-04-08T03:57:26.137Z,99887.50
2023-04-08T03:59:56.947Z,99889.97
2023-04-08T04:02:26.218Z,99896.03
2023-04-08T04:04:53.562Z,99890.78
2023-04-08T04:07:20.887Z,99896.88
2023-04-08T04:09:54.370Z,99900.38
2023-04-08T04:12:21.941Z,99899.50
2023-04-08T04:14:49.065Z,99907.41
2023-04-08T04:17:16.684Z,99908.31
2023-04-08T04:19:43.888Z,99916.19
2023-04-08T04:22:11.011Z,99923.09
2023-04-08T04:24:39.440Z,99927.53
2023-04-08T04:27:06.802Z,99924.94
2023-04-08T04:29:34.258Z,99928.44
2023-04-08T04:32:01.669Z,99937.13
2023-04-08T04:34:29.221Z,99936.28
2023-04-08T04:36:56.939Z,99933.72
2023-04-08T04:39:24.128Z,99946.75
2023-04-08T04:41:51.926Z,99945.00
2023-04-08T04:44:20.041Z,99950.28
2023-04-08T04:46:47.598Z,99954.63
2023-04-08T04:49:14.938Z,99951.06
2023-04-08T04:51:42.665Z,99951.94
2023-04-08T04:54:09.793Z,99958.91
2023-04-08T04:56:37.343Z,99952.78
2023-04-08T04:59:05.867Z,99962.31
2023-04-08T05:01:35.749Z,99960.59
2023-04-08T05:04:03.241Z,99967.63
2023-04-08T05:06:31.915Z,99959.75
2023-04-08T05:09:01.450Z,99967.47
2023-04-08T05:11:29.781Z,99968.34
2023-04-08T05:13:57.176Z,99965.75
2023-04-08T05:16:24.775Z,99980.47
2023-04-08T05:18:53.254Z,99986.59
2023-04-08T05:21:21.872Z,99988.31
2023-04-08T05:23:53.172Z,99988.25
2023-04-08T05:26:22.156Z,99990.09
2023-04-08T05:28:51.699Z,99992.69
2023-04-08T05:31:31.495Z,99997.88
2023-04-08T05:33:58.899Z,100007.59
2023-04-08T05:36:27.634Z,100006.66
2023-04-08T05:38:54.853Z,100014.56
2023-04-08T05:41:24.304Z,100015.44
2023-04-08T05:43:51.841Z,100016.31
2023-04-08T05:46:19.301Z,100013.66
2023-04-08T05:48:47.145Z,100023.22
2023-04-08T05:51:18.350Z,100027.53
2023-04-08T05:53:48.328Z,100031.84
2023-04-08T05:56:22.126Z,100025.78
2023-04-08T05:58:50.914Z,100047.63
2023-04-08T06:01:18.451Z,100032.81
2023-04-08T06:03:45.909Z,100039.78
2023-04-08T06:06:13.389Z,100052.09
2023-04-08T06:08:41.501Z,100043.38
2023-04-08T06:11:08.851Z,100048.59
2023-04-08T06:13:38.678Z,100039.91
2023-04-08T06:16:15.231Z,100046.91
2023-04-08T06:18:42.565Z,100053.88
2023-04-08T06:21:12.029Z,100058.19
2023-04-08T06:23:39.378Z,100057.28
2023-04-08T06:26:06.715Z,100066.84
2023-04-08T06:28:33.846Z,100066.81
2023-04-08T06:31:01.322Z,100068.56
2023-04-08T06:33:28.753Z,100070.25
2023-04-08T06:36:04.397Z,100074.59
2023-04-08T06:38:35.116Z,100072.00
2023-04-08T06:41:06.831Z,100075.47
2023-04-08T06:43:40.726Z,100087.63
2023-04-08T06:46:10.065Z,100085.00
2023-04-08T06:48:38.101Z,100087.63
2023-04-08T06:51:08.326Z,100086.72
2023-04-08T06:53:35.686Z,100084.97
2023-04-08T06:56:03.073Z,100091.84
2023-04-08T06:58:30.431Z,100097.06
2023-04-08T07:01:01.654Z,100098.78
2023-04-08T07:03:29.610Z,100097.91
2023-04-08T07:05:57.104Z,100104.81
2023-04-08T07:08:24.737Z,100099.53
2023-04-08T07:10:53.381Z,100106.34
2023-04-08T07:13:21.723Z,100101.88
2023-04-08T07:15:49.004Z,100115.75
2023-04-08T07:18:18.297Z,100107.00
2023-04-08T07:20:54.102Z,100114.75
2023-04-08T07:23:21.805Z,100114.75
2023-04-08T07:25:49.431Z,100111.28
2023-04-08T07:28:17.904Z,100115.63
2023-04-08T07:30:45.424Z,100113.88
2023-04-08T07:33:13.364Z,100120.78
2023-04-08T07:35:42.356Z,100127.72
2023-04-08T07:38:11.826Z,100126.88
2023-04-08T07:40:40.058Z,100133.91
2023-04-08T07:43:09.803Z,100129.38
2023-04-08T07:45:36.821Z,100130.19
2023-04-08T07:48:04.603Z,100126.69
2023-04-08T07:50:32.016Z,100124.94
2023-04-08T07:52:59.293Z,100127.38
2023-04-08T07:55:26.916Z,100135.13
2023-04-08T07:57:59.929Z,100130.00
2023-04-08T08:00:28.220Z,100134.22
2023-04-08T08:02:55.490Z,100127.13
2023-04-08T08:05:22.867Z,100136.47
2023-04-08T08:07:50.779Z,100133.97
2023-04-08T08:10:19.318Z,100140.91
2023-04-08T08:12:47.808Z,100144.41
2023-04-08T08:15:15.483Z,100140.84
2023-04-08T08:17:42.717Z,100144.16
2023-04-08T08:20:10.788Z,100146.44
2023-04-08T08:22:50.851Z,100146.41
2023-04-08T08:25:26.237Z,100142.88
2023-04-08T08:27:53.652Z,100147.19
2023-04-08T08:30:22.599Z,100156.75
2023-04-08T08:32:52.570Z,100146.06
2023-04-08T08:35:21.183Z,100145.28
2023-04-08T08:37:48.691Z,100155.00
2023-04-08T08:40:17.064Z,100154.63
2023-04-08T08:42:52.650Z,100159.56
2023-04-08T08:45:22.721Z,100166.38
2023-04-08T08:47:52.276Z,100168.88
2023-04-08T08:50:19.978Z,100169.84
2023-04-08T08:52:53.546Z,100173.22
2023-04-08T08:55:36.643Z,100172.94
2023-04-08T08:58:14.748Z,100176.31
2023-04-08T09:00:47.836Z,100167.59
2023-04-08T09:03:24.998Z,100173.81
2023-04-08T09:05:55.173Z,100181.56
2023-04-08T09:08:29.719Z,100175.88
2023-04-08T09:11:11.848Z,100184.06
2023-04-08T09:13:51.685Z,100181.84
2023-04-08T09:16:23.548Z,100187.59
2023-04-08T09:18:51.000Z,100191.56
2023-04-08T09:21:22.717Z,100200.41
2023-04-08T09:23:52.187Z,100203.75
2023-04-08T09:26:25.026Z,100201.94
2023-04-08T09:29:24.915Z,100206.22
2023-04-08T09:32:00.335Z,100210.38
2023-04-08T09:34:29.843Z,100199.63
2023-04-08T09:36:57.250Z,100210.50
2023-04-08T09:39:24.823Z,100203.16
2023-04-08T09:41:53.136Z,100213.66
2023-04-08T09:44:22.284Z,100208.66
2023-04-08T09:46:52.915Z,100215.44
2023-04-08T09:49:29.093Z,100218.66
2023-04-08T09:52:12.110Z,100217.44
2023-04-08T09:55:13.818Z,100220.44
2023-04-08T09:57:47.747Z,100210.72
2023-04-08T10:00:16.996Z,100205.75
2023-04-08T10:03:12.460Z,100210.97
2023-04-08T10:05:44.101Z,100213.53
2023-04-08T10:08:11.861Z,100203.53
2023-04-08T10:10:41.928Z,100208.84
2023-04-08T10:13:09.983Z,100209.66
2023-04-08T10:15:39.818Z,100208.81
2023-04-08T10:18:09.714Z,100205.16
2023-04-08T10:20:38.258Z,100203.22
2023-04-08T10:23:17.215Z,100199.78
2023-04-08T10:25:49.377Z,100197.78
2023-04-08T10:28:19.552Z,100196.97
2023-04-08T10:30:53.412Z,100195.63
2023-04-08T10:33:36.072Z,100194.41
2023-04-08T10:36:15.640Z,100194.09
2023-04-08T10:38:44.095Z,100194.44
2023-04-08T10:41:14.574Z,100186.22
2023-04-08T10:43:42.064Z,100193.75
2023-04-08T10:46:12.156Z,100182.59
2023-04-08T10:48:39.777Z,100186.84
2023-04-08T10:51:07.104Z,100191.53
2023-04-08T10:53:36.408Z,100194.13
2023-04-08T10:56:18.125Z,100190.84
2023-04-08T10:58:50.247Z,100196.16
2023-04-08T11:01:18.067Z,100192.34
2023-04-08T11:03:45.734Z,100198.22
2023-04-08T11:06:13.406Z,100189.81
2023-04-08T11:08:41.889Z,100187.81
2023-04-08T11:11:11.896Z,100200.09
2023-04-08T11:13:52.194Z,100187.81
2023-04-08T11:16:23.327Z,100192.47
2023-04-08T11:18:51.832Z,100189.53
2023-04-08T11:21:22.532Z,100186.47
2023-04-08T11:23:55.073Z,100189.69
2023-04-08T11:26:26.006Z,100183.09
2023-04-08T11:28:56.481Z,100173.50
2023-04-08T11:31:24.976Z,100176.44
2023-04-08T11:33:54.850Z,100175.56
2023-04-08T11:36:22.657Z,100167.88
2023-04-08T11:38:50.370Z,100173.59
2023-04-08T11:41:24.935Z,100176.88
2023-04-08T11:43:57.392Z,100167.22
2023-04-08T11:46:25.224Z,100169.91
2023-04-08T11:49:08.237Z,100171.44
2023-04-08T11:51:56.686Z,100165.53
2023-04-08T11:54:31.490Z,100177.72
2023-04-08T11:56:59.791Z,100165.94
2023-04-08T11:59:29.326Z,100170.19
2023-04-08T12:01:57.695Z,100178.19
2023-04-08T12:04:25.603Z,100183.34
2023-04-08T12:06:53.664Z,100178.06
2023-04-08T12:09:20.809Z,100174.44
2023-04-08T12:11:53.236Z,100175.50
2023-04-08T12:14:22.329Z,100173.19
2023-04-08T12:16:49.626Z,100165.69
2023-04-08T12:19:17.113Z,100170.00
2023-04-08T12:21:44.556Z,100173.78
2023-04-08T12:24:12.075Z,100176.41
2023-04-08T12:26:39.572Z,100178.13
2023-04-08T12:29:09.667Z,100172.66
2023-04-08T12:31:39.055Z,100179.13
2023-04-08T12:34:07.250Z,100178.25
2023-04-08T12:36:34.522Z,100178.38
2023-04-08T12:39:02.965Z,100175.50
2023-04-08T12:41:30.444Z,100172.41
2023-04-08T12:43:58.849Z,100179.56
2023-04-08T12:46:26.436Z,100176.53
2023-04-08T12:49:04.693Z,100173.19
2023-04-08T12:51:32.711Z,100180.28
2023-04-08T12:54:00.990Z,100171.63
2023-04-08T12:56:28.360Z,100171.88
2023-04-08T12:58:56.921Z,100170.00
2023-04-08T13:01:24.302Z,100172.31
2023-04-08T13:03:51.913Z,100171.59
2023-04-08T13:06:19.130Z,100170.31
2023-04-08T13:08:48.576Z,100173.00
2023-04-08T13:11:16.345Z,100163.47
2023-04-08T13:13:46.666Z,100172.75
2023-04-08T13:16:14.711Z,100174.38
2023-04-08T13:18:42.496Z,100170.53
2023-04-08T13:21:10.658Z,100168.53
2023-04-08T13:23:37.966Z,100162.91
2023-04-08T13:26:11.079Z,100172.47
2023-04-08T13:28:46.668Z,100166.34
2023-04-08T13:31:21.372Z,100170.50
2023-04-08T13:33:50.288Z,100164.81
2023-04-08T13:36:17.300Z,100164.47
2023-04-08T13:38:46.375Z,100169.53
2023-04-08T13:41:13.625Z,100164.81
2023-04-08T13:43:43.725Z,100176.03
2023-04-08T13:46:10.708Z,100167.47
2023-04-08T13:48:38.040Z,100162.47
2023-04-08T13:51:06.098Z,100166.00
2023-04-08T13:53:34.031Z,100163.97
2023-04-08T13:56:07.166Z,100165.88
2023-04-08T13:58:35.085Z,100169.94
2023-04-08T14:01:04.431Z,100167.13
2023-04-08T14:03:31.683Z,100164.59
2023-04-08T14:06:01.572Z,100172.28
2023-04-08T14:08:29.023Z,100169.41
2023-04-08T14:10:56.432Z,100174.03
2023-04-08T14:13:23.691Z,100176.72
2023-04-08T14:15:52.502Z,100175.19
2023-04-08T14:18:21.667Z,100176.03
2023-04-08T14:20:49.922Z,100180.91
2023-04-08T14:23:17.926Z,100181.00
2023-04-08T14:25:44.851Z,100179.88
2023-04-08T14:28:11.781Z,100177.53
2023-04-08T14:30:38.715Z,100190.44
2023-04-08T14:33:11.788Z,100192.50
2023-04-08T14:35:39.823Z,100185.72
2023-04-08T14:38:07.296Z,100190.50
2023-04-08T14:40:36.476Z,100189.09
2023-04-08T14:43:04.729Z,100189.25
2023-04-08T14:45:33.493Z,100185.81
2023-04-08T14:48:01.716Z,100188.50
2023-04-08T14:50:29.705Z,100187.72
2023-04-08T14:52:56.512Z,100186.88
2023-04-08T14:55:24.377Z,100188.91
2023-04-08T14:57:51.345Z,100181.03
2023-04-08T15:00:19.830Z,100184.47
2023-04-08T15:02:47.877Z,100183.84
2023-04-08T15:05:16.629Z,100182.00
2023-04-08T15:07:44.952Z,100185.75
2023-04-08T15:10:12.285Z,100187.38
2023-04-08T15:12:40.528Z,100188.53
2023-04-08T15:15:07.872Z,100186.38
2023-04-08T15:17:35.163Z,100190.78
2023-04-08T15:20:02.175Z,100186.09
2023-04-08T15:22:29.533Z,100187.72
2023-04-08T15:24:56.484Z,100188.50
2023-04-08T15:27:23.479Z,100188.47
2023-04-08T15:29:51.482Z,100197.94
2023-04-08T15:32:18.339Z,100190.88
2023-04-08T15:34:47.854Z,100196.00
2023-04-08T15:37:14.754Z,100188.06
2023-04-08T15:39:48.994Z,100193.47
2023-04-08T15:42:15.946Z,100193.47
2023-04-08T15:44:43.244Z,100195.03
2023-04-08T15:47:10.344Z,100202.56
2023-04-08T15:49:44.230Z,100201.94
2023-04-08T15:52:12.635Z,100200.69
2023-04-08T15:54:39.786Z,100202.41
2023-04-08T15:57:06.683Z,100207.94
2023-04-08T15:59:33.619Z,100210.47
2023-04-08T16:02:01.020Z,100211.00
2023-04-08T16:04:29.113Z,100216.38
2023-04-08T16:06:56.520Z,100210.31
2023-04-08T16:09:26.954Z,100214.06
2023-04-08T16:11:54.215Z,100214.78
2023-04-08T16:14:21.666Z,100219.41
2023-04-08T16:16:49.552Z,100216.56
2023-04-08T16:19:16.700Z,100214.88
2023-04-08T16:21:44.988Z,100222.88
2023-04-08T16:24:11.808Z,100229.25
2023-04-08T16:26:41.070Z,100226.59
2023-04-08T16:29:08.673Z,100221.59
2023-04-08T16:31:36.863Z,100225.06
2023-04-08T16:34:05.309Z,100222.66
2023-04-08T16:36:34.380Z,100224.44
2023-04-08T16:39:01.510Z,100223.94
2023-04-08T16:41:28.692Z,100224.97
2023-04-08T16:43:55.792Z,100228.66
2023-04-08T16:46:22.746Z,100219.09
2023-04-08T16:48:50.089Z,100221.97
2023-04-08T16:51:17.868Z,100230.91
2023-04-08T16:53:45.146Z,100229.47
2023-04-08T16:56:16.092Z,100228.84
2023-04-08T16:58:43.577Z,100228.78
2023-04-08T17:01:11.586Z,100233.13
2023-04-08T17:03:39.213Z,100235.94
2023-04-08T17:06:10.139Z,100231.75
2023-04-08T17:08:37.065Z,100240.31
2023-04-08T17:11:13.167Z,100233.00
2023-04-08T17:13:41.615Z,100242.06
2023-04-08T17:16:12.591Z,100249.25
2023-04-08T17:18:40.980Z,100263.78
2023-04-08T17:21:08.187Z,100263.38
2023-04-08T17:23:35.268Z,100268.00
2023-04-08T17:26:09.194Z,100268.91
2023-04-08T17:28:36.642Z,100276.69
2023-04-08T17:31:03.748Z,100278.59
2023-04-08T17:33:30.729Z,100280.78
2023-04-08T17:35:59.014Z,100286.13
2023-04-08T17:38:26.220Z,100281.78
2023-04-08T17:40:53.538Z,100287.94
2023-04-08T17:43:20.962Z,100278.03
2023-04-08T17:45:50.357Z,100288.91
2023-04-08T17:48:17.668Z,100292.22
2023-04-08T17:50:44.910Z,100305.69
2023-04-08T17:53:11.787Z,100305.25
2023-04-08T17:55:38.735Z,100306.97
2023-04-08T17:58:05.647Z,100304.53
2023-04-08T18:00:33.908Z,100306.19
2023-04-08T18:03:01.641Z,100309.91
2023-04-08T18:05:30.376Z,100312.50
2023-04-08T18:07:58.813Z,100309.88
2023-04-08T18:10:27.936Z,100314.41
2023-04-08T18:13:10.256Z,100317.28
2023-04-08T18:15:38.646Z,100308.41
2023-04-08T18:18:05.987Z,100319.03
2023-04-08T18:20:38.550Z,100313.91
2023-04-08T18:23:05.728Z,100316.66
2023-04-08T18:25:34.782Z,100322.78
2023-04-08T18:28:03.982Z,100319.69
2023-04-08T18:30:30.854Z,100316.16
2023-04-08T18:32:57.956Z,100322.22
2023-04-08T18:35:25.763Z,100319.66
2023-04-08T18:37:52.752Z,100326.88
2023-04-08T18:40:19.715Z,100321.66
2023-04-08T18:42:46.624Z,100320.34
2023-04-08T18:45:14.622Z,100320.69
2023-04-08T18:47:42.747Z,100326.03
2023-04-08T18:50:10.108Z,100320.16
2023-04-08T18:52:37.858Z,100324.56
2023-04-08T18:55:05.632Z,100328.28
2023-04-08T18:57:33.578Z,100323.75
2023-04-08T19:00:00.942Z,100325.44
2023-04-08T19:02:28.954Z,100324.81
2023-04-08T19:04:56.670Z,100325.19
2023-04-08T19:07:24.857Z,100325.44
2023-04-08T19:09:56.135Z,100323.69
2023-04-08T19:12:23.318Z,100324.97
2023-04-08T19:14:59.672Z,100325.41
2023-04-08T19:17:26.908Z,100326.63
2023-04-08T19:19:54.826Z,100323.81
2023-04-08T19:22:21.982Z,100326.94
2023-04-08T19:24:49.249Z,100329.50
2023-04-08T19:27:17.240Z,100327.81
2023-04-08T19:29:45.196Z,100326.25
2023-04-08T19:32:12.840Z,100329.78
2023-04-08T19:34:40.418Z,100341.00
2023-04-08T19:37:07.729Z,100334.88
2023-04-08T19:39:35.140Z,100328.56
2023-04-08T19:42:02.263Z,100330.44
2023-04-08T19:44:29.411Z,100327.53
2023-04-08T19:46:58.005Z,100333.19
2023-04-08T19:49:25.540Z,100326.09
2023-04-08T19:51:52.927Z,100329.94
2023-04-08T19:54:20.312Z,100333.97
2023-04-08T19:56:47.702Z,100332.06
2023-04-08T19:59:16.540Z,100331.63
2023-04-08T20:01:45.764Z,100333.69
2023-04-08T20:04:13.258Z,100337.88
2023-04-08T20:06:40.699Z,100343.78
2023-04-08T20:09:07.665Z,100346.28
2023-04-08T20:11:38.227Z,100349.03
2023-04-08T20:14:05.614Z,100356.13
2023-04-08T20:16:32.931Z,100357.84
2023-04-08T20:18:59.962Z,100353.41
2023-04-08T20:21:28.120Z,100351.72
2023-04-08T20:23:56.913Z,100353.53
2023-04-08T20:26:24.960Z,100350.63
2023-04-08T20:28:51.958Z,100328.31
2023-04-08T20:31:20.336Z,100327.47
2023-04-08T20:33:49.894Z,100324.59
2023-04-08T20:36:17.831Z,100324.13
2023-04-08T20:38:45.825Z,100320.44
2023-04-08T20:41:17.625Z,100311.69
2023-04-08T20:43:44.857Z,100312.22
2023-04-08T20:46:11.756Z,100321.06
2023-04-08T20:48:41.232Z,100318.56
2023-04-08T20:51:08.175Z,100317.56
2023-04-08T20:53:36.570Z,100317.78
2023-04-08T20:56:04.133Z,100314.03
2023-04-08T20:58:32.334Z,100318.41
2023-04-08T21:01:00.205Z,100321.09
2023-04-08T21:03:28.081Z,100315.72
2023-04-08T21:05:57.093Z,100313.19
2023-04-08T21:08:24.143Z,100319.31
2023-04-08T21:10:52.526Z,100321.88
2023-04-08T21:13:20.587Z,100323.88
2023-04-08T21:15:47.535Z,100323.09
2023-04-08T21:18:14.462Z,100330.16
2023-04-08T21:20:41.932Z,100334.53
2023-04-08T21:23:18.475Z,100336.03
2023-04-08T21:25:45.642Z,100345.28
2023-04-08T21:28:12.910Z,100353.19
2023-04-08T21:30:40.006Z,100353.91
2023-04-08T21:33:08.504Z,100355.63
2023-04-08T21:35:36.085Z,100357.44
2023-04-08T21:38:16.365Z,100348.66
2023-04-08T21:40:43.602Z,100352.53
2023-04-08T21:43:11.666Z,100350.91
2023-04-08T21:45:38.949Z,100348.38
2023-04-08T21:48:07.269Z,100345.69
2023-04-08T21:50:34.389Z,100333.66
2023-04-08T21:53:01.923Z,100340.66
2023-04-08T21:55:29.720Z,100335.50
2023-04-08T21:57:57.764Z,100334.63
2023-04-08T22:00:24.857Z,100326.63
2023-04-08T22:02:52.795Z,100324.03
2023-04-08T22:05:21.304Z,100328.50
2023-04-08T22:07:48.652Z,100323.19
2023-04-08T22:10:15.909Z,100323.28
2023-04-08T22:12:43.040Z,100319.66
2023-04-08T22:15:10.828Z,100322.38
2023-04-08T22:17:38.963Z,100319.91
2023-04-08T22:20:06.781Z,100314.72
2023-04-08T22:22:33.818Z,100305.00
2023-04-08T22:25:12.636Z,100305.94
2023-04-08T22:27:39.562Z,100310.41
2023-04-08T22:30:08.141Z,100300.84
2023-04-08T22:32:35.666Z,100298.16
2023-04-08T22:35:03.021Z,100293.78
2023-04-08T22:37:31.738Z,100287.56
2023-04-08T22:40:01.523Z,100294.63
2023-04-08T22:42:29.905Z,100292.84
2023-04-08T22:45:05.297Z,100300.72
2023-04-08T22:47:32.697Z,100303.38
2023-04-08T22:49:59.962Z,100293.75
2023-04-08T22:52:28.044Z,100300.03
2023-04-08T22:54:55.765Z,100291.25
2023-04-08T22:57:37.334Z,100287.78
2023-04-08T23:00:05.384Z,100289.41
2023-04-08T23:02:34.843Z,100302.53
2023-04-08T23:05:04.291Z,100305.97
2023-04-08T23:07:31.644Z,100302.59
2023-04-08T23:09:58.558Z,100299.16
2023-04-08T23:12:25.609Z,100296.56
2023-04-08T23:14:53.007Z,100287.84
2023-04-08T23:17:19.981Z,100295.75
2023-04-08T23:19:47.353Z,100294.69
2023-04-08T23:22:14.738Z,100295.66
2023-04-08T23:24:42.896Z,100290.47
2023-04-08T23:27:09.776Z,100290.50
2023-04-08T23:29:38.781Z,100288.78
2023-04-08T23:32:05.645Z,100290.53
2023-04-08T23:34:36.033Z,100294.88
2023-04-08T23:37:04.712Z,100296.41
2023-04-08T23:39:32.245Z,100300.66
2023-04-08T23:41:59.786Z,100297.13
2023-04-08T23:44:27.179Z,100294.38
2023-04-08T23:47:01.165Z,100298.72
2023-04-08T23:49:28.184Z,100295.94
2023-04-08T23:51:55.040Z,100298.47
2023-04-08T23:54:24.104Z,100304.59
2023-04-08T23:56:51.068Z,100307.13
2023-04-08T23:59:17.987Z,100309.66
